Time;durP1;ratioP1;P1;durP2;ratioP2;P2;SDS_P1;SDS_P2;PMS_P1;PMS_P2;Temp;Humidity;BMP_temperature;BMP_pressure;BME280_temperature;BME280_humidity;BME280_pressure;Samples;Min_cycle;Max_cycle;Signal;HPM_P1;HPM_P2
2021/04/23 00:02:25;;;;;;;32.85;18.85;;;;;;;8.58;75.53;101390.76;1773886;80;21812;-68
2021/04/23 00:04:59;;;;;;;23.07;14.28;;;;;;;8.59;75.78;101393.75;1778269;80;21276;-67
2021/04/23 00:07:32;;;;;;;22.53;15.37;;;;;;;8.61;75.97;101389.27;1784631;80;21264;-67
2021/04/23 00:10:11;;;;;;;30.52;18.52;;;;;;;8.61;75.98;101389.27;1773746;80;21283;-67
2021/04/23 00:12:44;;;;;;;27.22;16.62;;;;;;;8.59;76.01;101387.23;1769321;80;21216;-67
2021/04/23 00:15:19;;;;;;;29.45;20.08;;;;;;;8.55;76.04;101385.72;1780645;80;21750;-67
2021/04/23 00:17:52;;;;;;;29.35;17.52;;;;;;;8.54;75.97;101380.61;1770534;80;21317;-67
2021/04/23 00:20:27;;;;;;;31.45;15.90;;;;;;;8.47;75.80;101381.92;1774486;80;21271;-67
2021/04/23 00:23:03;;;;;;;27.52;14.38;;;;;;;8.41;75.76;101388.81;1773003;80;21710;-67
2021/04/23 00:25:36;;;;;;;23.30;13.15;;;;;;;8.36;75.87;101383.88;1777415;80;21180;-67
2021/04/23 00:28:12;;;;;;;25.10;13.70;;;;;;;8.31;75.93;101387.23;1771380;80;21254;-66
2021/04/23 00:30:48;;;;;;;20.85;12.28;;;;;;;8.27;76.04;101384.45;1778950;80;21222;-67
2021/04/23 00:33:22;;;;;;;22.73;13.22;;;;;;;8.24;76.18;101391.12;1778198;80;21178;-67
2021/04/23 00:35:55;;;;;;;18.67;13.13;;;;;;;8.22;76.35;101390.84;1777353;80;21859;-67
2021/04/23 00:38:28;;;;;;;15.57;10.00;;;;;;;8.19;76.42;101388.44;1777753;80;21355;-67
2021/04/23 00:41:14;;;;;;;26.68;14.35;;;;;;;8.16;76.58;101395.98;1780903;80;21957;-67
2021/04/23 00:43:57;;;;;;;32.13;15.53;;;;;;;8.12;76.66;101397.08;1767787;80;21172;-67
2021/04/23 00:46:24;;;;;;;23.02;14.50;;;;;;;8.08;76.73;101395.59;1772290;80;21290;-67
2021/04/23 00:48:57;;;;;;;25.10;14.45;;;;;;;8.05;76.78;101400.98;1770279;80;21809;-67
2021/04/23 00:51:41;;;;;;;30.25;14.73;;;;;;;8.03;76.85;101401.09;1769968;80;21187;-68
2021/04/23 00:54:14;;;;;;;21.52;13.83;;;;;;;8.02;76.95;101395.98;1767996;80;21258;-67
2021/04/23 00:56:47;;;;;;;22.95;13.65;;;;;;;8.00;77.12;101391.33;1769265;80;21808;-67
2021/04/23 00:59:20;;;;;;;20.17;13.93;;;;;;;8.01;77.29;101392.98;1778671;80;21192;-67
2021/04/23 01:02:01;;;;;;;24.93;16.97;;;;;;;8.00;77.35;101394.75;1781463;80;21272;-67
2021/04/23 01:04:34;;;;;;;26.20;18.70;;;;;;;7.96;77.36;101390.66;1784266;80;21288;-67
2021/04/23 01:07:08;;;;;;;22.90;14.50;;;;;;;7.91;77.33;101390.55;1780201;80;21278;-67
2021/04/23 01:09:41;;;;;;;21.30;14.03;;;;;;;7.84;77.37;101390.08;1772265;80;21279;-67
2021/04/23 01:12:14;;;;;;;32.90;21.70;;;;;;;7.79;77.40;101392.12;1778445;80;21801;-67
2021/04/23 01:14:48;;;;;;;22.52;14.55;;;;;;;7.74;77.45;101388.94;1769916;80;21172;-67
2021/04/23 01:17:21;;;;;;;22.20;13.10;;;;;;;7.70;77.54;101386.16;1778345;80;21187;-67
2021/04/23 01:19:53;;;;;;;21.30;13.83;;;;;;;7.67;77.63;101386.33;1784252;80;21188;-67
2021/04/23 01:22:27;;;;;;;19.57;13.25;;;;;;;7.65;77.64;101382.13;1747639;80;21338;-67
2021/04/23 01:25:00;;;;;;;19.73;13.05;;;;;;;7.61;77.50;101391.06;1772768;80;21299;-67
2021/04/23 01:27:33;;;;;;;20.27;14.53;;;;;;;7.52;77.47;101392.91;1774538;80;21282;-67
2021/04/23 01:30:11;;;;;;;23.20;15.08;;;;;;;7.43;77.54;101392.50;1769903;80;21810;-67
2021/04/23 01:32:44;;;;;;;26.23;17.17;;;;;;;7.40;77.80;101397.07;1768132;80;21305;-67
2021/04/23 01:35:22;;;;;;;26.70;17.10;;;;;;;7.37;78.03;101396.78;1774211;80;21822;-66
2021/04/23 01:37:55;;;;;;;34.53;21.60;;;;;;;7.34;78.09;101393.49;1768811;80;21144;-65
2021/04/23 01:40:28;;;;;;;25.50;16.42;;;;;;;7.33;78.15;101395.25;1768588;80;21816;-65
2021/04/23 01:43:01;;;;;;;36.00;20.70;;;;;;;7.31;78.21;101396.27;1778087;80;21164;-65
2021/04/23 01:45:34;;;;;;;18.40;13.15;;;;;;;7.28;78.24;101390.77;1775057;80;22042;-65
2021/04/23 01:48:09;;;;;;;18.92;12.15;;;;;;;7.28;78.29;101386.86;1778626;80;21220;-65
2021/04/23 01:50:43;;;;;;;23.30;12.80;;;;;;;7.25;78.32;101384.91;1781531;80;21812;-66
2021/04/23 01:53:16;;;;;;;24.57;13.25;;;;;;;7.24;78.34;101380.61;1771288;80;21216;-65
2021/04/23 01:55:50;;;;;;;20.55;12.70;;;;;;;7.19;78.27;101383.48;1773371;80;21151;-65
2021/04/23 01:58:23;;;;;;;21.80;13.43;;;;;;;7.15;78.23;101383.75;1773026;80;21311;-65
2021/04/23 02:00:56;;;;;;;23.40;12.93;;;;;;;7.11;78.18;101388.30;1777701;80;21319;-65
2021/04/23 02:03:29;;;;;;;23.97;13.23;;;;;;;7.06;78.12;101382.97;1776453;80;21315;-66
2021/04/23 02:06:02;;;;;;;21.42;12.58;;;;;;;7.02;78.16;101379.69;1772444;80;21288;-65
2021/04/23 02:08:35;;;;;;;31.10;14.87;;;;;;;6.99;78.15;101380.34;1768622;80;21288;-65
2021/04/23 02:11:11;;;;;;;30.87;13.20;;;;;;;6.95;78.11;101382.26;1768196;80;21286;-65
2021/04/23 02:13:46;;;;;;;23.45;12.85;;;;;;;6.90;78.09;101386.91;1773767;80;21274;-66
2021/04/23 02:16:20;;;;;;;28.40;14.70;;;;;;;6.86;78.22;101391.04;1772304;80;21267;-66
2021/04/23 02:18:53;;;;;;;25.88;13.05;;;;;;;6.84;78.23;101391.59;1780753;80;21327;-65
2021/04/23 02:21:26;;;;;;;22.85;12.70;;;;;;;6.82;78.24;101386.48;1770076;80;21292;-66
2021/04/23 02:24:00;;;;;;;21.73;12.65;;;;;;;6.80;78.31;101389.64;1771543;80;21278;-66
2021/04/23 02:26:34;;;;;;;23.85;12.33;;;;;;;6.79;78.35;101386.64;1770888;80;21275;-66
2021/04/23 02:29:09;;;;;;;22.48;12.58;;;;;;;6.79;78.41;101389.25;1774404;80;21275;-65
2021/04/23 02:31:45;;;;;;;20.65;13.90;;;;;;;6.81;78.40;101392.59;1774778;80;21732;-65
2021/04/23 02:34:20;;;;;;;18.87;12.80;;;;;;;6.82;78.38;101394.30;1774877;80;21857;-65
2021/04/23 02:36:53;;;;;;;20.32;12.90;;;;;;;6.81;78.38;101387.39;1776985;80;21275;-65
2021/04/23 02:39:26;;;;;;;17.75;12.07;;;;;;;6.83;78.35;101386.03;1766663;80;21278;-66
2021/04/23 02:41:59;;;;;;;22.03;12.17;;;;;;;6.84;78.27;101384.62;1767525;80;21264;-66
2021/04/23 02:44:34;;;;;;;17.35;11.40;;;;;;;6.87;78.24;101387.53;1774372;80;21315;-66
2021/04/23 02:47:08;;;;;;;20.97;11.65;;;;;;;6.93;78.16;101391.08;1787709;80;21168;-66
2021/04/23 02:49:41;;;;;;;21.85;11.53;;;;;;;7.00;78.03;101391.95;1763537;80;21833;-66
2021/04/23 02:52:14;;;;;;;21.60;12.07;;;;;;;7.07;77.80;101395.89;1778478;80;21280;-66
2021/04/23 02:54:47;;;;;;;21.93;12.30;;;;;;;7.14;77.57;101391.20;1768556;80;21832;-66
2021/04/23 02:57:20;;;;;;;24.18;14.03;;;;;;;7.22;77.39;101391.59;1771652;80;21203;-66
2021/04/23 02:59:53;;;;;;;38.07;19.30;;;;;;;7.35;77.27;101406.91;1781505;80;21323;-66
2021/04/23 03:02:26;;;;;;;19.60;10.10;;;;;;;7.48;76.93;101404.80;1773798;80;21282;-66
2021/04/23 03:05:00;;;;;;;20.35;11.38;;;;;;;7.70;76.67;101407.00;1768668;80;21414;-66
2021/04/23 03:07:34;;;;;;;18.45;11.93;;;;;;;7.93;76.15;101405.63;1781922;80;21282;-66
2021/04/23 03:10:08;;;;;;;23.12;12.00;;;;;;;8.09;75.34;101411.17;1775541;80;21302;-66
2021/04/23 03:12:41;;;;;;;19.60;11.48;;;;;;;8.19;74.94;101406.24;1780684;80;21156;-66
2021/04/23 03:15:16;;;;;;;18.27;11.77;;;;;;;8.36;74.45;101407.86;1771524;80;21833;-66
2021/04/23 03:17:49;;;;;;;19.42;11.50;;;;;;;8.49;73.87;101410.91;1765611;80;21267;-66
2021/04/23 03:20:23;;;;;;;17.15;10.43;;;;;;;8.55;73.33;101412.31;1778109;80;21330;-66
2021/04/23 03:22:56;;;;;;;12.90;8.88;;;;;;;8.65;72.99;101412.09;1776524;80;21316;-66
2021/04/23 03:25:31;;;;;;;17.50;9.60;;;;;;;8.77;72.59;101416.08;1781995;80;22628;-65
2021/04/23 03:28:04;;;;;;;11.73;8.80;;;;;;;8.95;72.01;101411.94;1765960;80;21177;-66
2021/04/23 03:30:41;;;;;;;11.95;8.40;;;;;;;9.07;71.62;101413.31;1786239;80;21826;-66
2021/04/23 03:33:15;;;;;;;13.62;9.58;;;;;;;9.24;71.40;101416.14;1771413;80;21284;-66
2021/04/23 03:35:49;;;;;;;14.25;9.68;;;;;;;9.42;70.95;101414.94;1781494;80;21271;-67
2021/04/23 03:38:23;;;;;;;13.30;8.53;;;;;;;9.64;70.60;101416.97;1771074;80;21348;-66
2021/04/23 03:40:57;;;;;;;14.70;10.05;;;;;;;9.87;70.07;101411.88;1775808;80;21184;-68
2021/04/23 03:43:30;;;;;;;13.13;9.43;;;;;;;10.15;69.65;101410.85;1771015;80;21329;-67
2021/04/23 03:46:03;;;;;;;14.30;10.00;;;;;;;10.47;69.16;101412.09;1775146;80;21290;-67
2021/04/23 03:48:36;;;;;;;15.03;9.55;;;;;;;10.93;68.42;101416.69;1769954;80;21267;-68
2021/04/23 03:51:10;;;;;;;12.18;10.32;;;;;;;11.51;67.43;101414.94;1768365;80;21259;-68
2021/04/23 03:53:44;;;;;;;15.83;10.82;;;;;;;12.19;65.89;101406.30;1778014;80;21294;-68
2021/04/23 03:56:17;;;;;;;15.93;10.43;;;;;;;12.88;63.90;101403.85;1770739;80;21173;-68
2021/04/23 03:58:50;;;;;;;11.35;10.13;;;;;;;13.52;62.04;101398.14;1770742;80;21140;-68
2021/04/23 04:01:25;;;;;;;11.80;9.43;;;;;;;14.13;60.01;101399.94;1777583;80;21852;-69
2021/04/23 04:03:57;;;;;;;13.10;9.93;;;;;;;14.76;58.50;101404.08;1747812;80;21313;-69
2021/04/23 04:06:31;;;;;;;15.20;9.83;;;;;;;15.47;56.65;101404.75;1764616;80;21709;-69
2021/04/23 04:09:07;;;;;;;13.55;9.43;;;;;;;16.12;54.72;101397.34;1770687;80;21360;-69
2021/04/23 04:11:40;;;;;;;12.73;8.48;;;;;;;16.80;52.60;101394.26;1780453;80;21295;-69
2021/04/23 04:14:14;;;;;;;12.58;8.83;;;;;;;17.43;50.67;101399.52;1787705;80;21208;-69
2021/04/23 04:16:47;;;;;;;14.50;8.73;;;;;;;17.99;49.17;101393.81;1774730;80;21220;-69
2021/04/23 04:19:20;;;;;;;10.08;7.80;;;;;;;18.52;47.00;101392.30;1769014;80;21279;-69
2021/04/23 04:21:53;;;;;;;13.95;9.28;;;;;;;18.94;45.74;101397.07;1772616;80;21200;-68
2021/04/23 04:24:26;;;;;;;20.40;9.80;;;;;;;19.49;44.85;101393.34;1773123;80;21342;-69
2021/04/23 04:26:59;;;;;;;15.28;10.03;;;;;;;20.02;43.20;101383.49;1777693;80;21838;-67
2021/04/23 04:29:32;;;;;;;14.18;10.00;;;;;;;20.45;41.95;101386.20;1773862;80;21215;-68
2021/04/23 04:32:06;;;;;;;20.43;8.98;;;;;;;20.82;41.08;101382.38;1776356;80;21319;-67
2021/04/23 04:34:39;;;;;;;11.60;8.43;;;;;;;21.16;39.83;101387.36;1777162;80;21195;-68
2021/04/23 04:37:13;;;;;;;13.45;9.13;;;;;;;21.46;39.24;101387.28;1771117;80;21176;-68
2021/04/23 04:39:46;;;;;;;16.67;9.00;;;;;;;21.80;38.41;101392.15;1770607;80;21135;-72
2021/04/23 04:42:20;;;;;;;15.88;8.98;;;;;;;22.23;37.63;101384.39;1781003;80;21842;-71
2021/04/23 04:44:53;;;;;;;10.43;8.10;;;;;;;22.58;36.89;101386.28;1774555;80;21200;-68
2021/04/23 04:47:26;;;;;;;14.40;8.25;;;;;;;22.84;35.95;101385.28;1767654;80;21353;-67
2021/04/23 04:50:03;;;;;;;12.47;8.83;;;;;;;23.05;35.30;101390.65;1784748;80;21209;-67
2021/04/23 04:52:36;;;;;;;26.60;10.00;;;;;;;23.28;34.92;101390.48;1754003;80;21350;-66
2021/04/23 04:55:10;;;;;;;14.98;9.78;;;;;;;23.69;34.38;101390.66;1746036;82;21208;-67
2021/04/23 04:57:43;;;;;;;13.62;9.30;;;;;;;24.06;33.72;101388.95;1740905;81;21282;-68
2021/04/23 05:00:18;;;;;;;15.25;9.45;;;;;;;24.24;33.32;101379.92;1745052;82;21725;-67
2021/04/23 05:02:52;;;;;;;12.85;9.18;;;;;;;24.15;32.67;101373.59;1746886;81;21303;-65
2021/04/23 05:05:26;;;;;;;11.35;8.90;;;;;;;24.15;32.67;101373.59;1745290;80;21310;-66
2021/04/23 05:08:00;;;;;;;11.35;8.40;;;;;;;24.22;33.22;101372.61;1749681;81;21302;-66
2021/04/23 05:10:34;;;;;;;13.22;8.98;;;;;;;24.94;32.61;101372.92;1740593;81;21290;-67
2021/04/23 05:13:07;;;;;;;19.02;9.08;;;;;;;24.94;32.61;101372.92;1740246;81;21807;-67
2021/04/23 05:15:40;;;;;;;18.37;9.05;;;;;;;25.32;32.01;101370.50;1746719;81;21307;-67
2021/04/23 05:18:14;;;;;;;16.45;9.10;;;;;;;25.70;31.65;101370.77;1741361;82;21692;-68
2021/04/23 05:20:47;;;;;;;10.95;8.50;;;;;;;26.05;31.03;101368.95;1738745;81;21167;-65
2021/04/23 05:23:21;;;;;;;15.40;9.03;;;;;;;26.43;30.43;101363.69;1743379;81;21752;-62
2021/04/23 05:25:54;;;;;;;12.60;8.30;;;;;;;26.89;29.88;101368.03;1739684;81;21840;-65
2021/04/23 05:28:27;;;;;;;11.85;8.48;;;;;;;27.17;29.07;101367.95;1746313;82;21818;-66
2021/04/23 05:31:00;;;;;;;12.73;8.63;;;;;;;27.28;28.96;101365.06;1744767;81;21287;-67
2021/04/23 05:33:33;;;;;;;;;;;;;;;27.52;28.74;101366.14;1759934;80;21245;-68
2021/04/23 05:36:07;;;;;;;17.82;8.93;;;;;;;27.90;28.37;101363.61;1743065;82;20245;-67
2021/04/23 05:38:40;;;;;;;11.33;8.90;;;;;;;28.09;27.95;101360.98;1749686;80;21189;-69
2021/04/23 05:41:15;;;;;;;11.80;9.00;;;;;;;28.27;27.67;101356.92;1741456;81;21331;-67
2021/04/23 05:43:48;;;;;;;10.45;8.10;;;;;;;28.41;27.46;101357.05;1740474;81;21351;-67
2021/04/23 05:46:22;;;;;;;13.13;8.08;;;;;;;28.55;27.27;101353.97;1744036;81;21228;-66
2021/04/23 05:48:55;;;;;;;12.18;8.63;;;;;;;28.76;26.99;101351.32;1741128;81;21311;-66
2021/04/23 05:51:28;;;;;;;12.58;8.40;;;;;;;28.99;26.58;101350.59;1751663;81;21319;-65
2021/04/23 05:54:02;;;;;;;14.40;8.88;;;;;;;29.21;26.46;101353.88;1728971;82;21353;-69
2021/04/23 05:56:35;;;;;;;10.65;8.28;;;;;;;29.40;25.90;101345.72;1752958;81;21239;-68
2021/04/23 05:59:07;;;;;;;12.25;9.28;;;;;;;29.42;25.65;101349.00;1732934;82;21362;-69
2021/04/23 06:01:42;;;;;;;15.70;9.30;;;;;;;29.32;26.21;101337.44;1735365;82;21239;-66
2021/04/23 06:04:14;;;;;;;;;;;;;;;29.44;26.16;101346.89;1737579;82;21339;-68
2021/04/23 06:06:47;;;;;;;12.60;9.03;;;;;;;29.75;25.84;101341.14;1723682;83;20253;-67
2021/04/23 06:09:21;;;;;;;10.98;7.95;;;;;;;29.93;25.73;101343.73;1733206;82;21320;-67
2021/04/23 06:11:54;;;;;;;;;;;;;;;30.30;25.57;101341.55;1737833;82;21290;-68
2021/04/23 06:14:27;;;;;;;10.18;7.60;;;;;;;30.66;24.97;101335.81;1722896;82;20264;-67
2021/04/23 06:17:04;;;;;;;12.63;7.87;;;;;;;30.99;24.18;101344.02;1735503;82;21365;-67
2021/04/23 06:19:35;;;;;;;10.93;8.38;;;;;;;31.04;24.07;101344.10;1754707;81;21168;-66
2021/04/23 06:22:08;;;;;;;;;;;;;;;31.24;23.79;101340.36;1739205;82;21816;-66
2021/04/23 06:24:41;;;;;;;9.98;7.42;;;;;;;31.39;23.24;101338.97;1735186;82;20312;-66
2021/04/23 06:27:14;;;;;;;14.73;8.55;;;;;;;31.33;23.32;101335.91;1738325;82;21818;-65
2021/04/23 06:29:50;;;;;;;8.93;7.25;;;;;;;31.46;23.54;101336.94;1739389;82;21169;-66
2021/04/23 06:32:22;;;;;;;12.00;8.43;;;;;;;31.66;23.35;101333.20;1748403;81;21208;-66
2021/04/23 06:34:56;;;;;;;9.10;7.40;;;;;;;31.89;22.96;101334.33;1745813;82;21276;-68
2021/04/23 06:37:28;;;;;;;;;;;;;;;32.07;22.58;101329.19;1746131;81;21292;-67
2021/04/23 06:40:01;;;;;;;9.33;6.22;;;;;;;32.04;22.49;101326.44;1739882;81;20225;-66
2021/04/23 06:42:36;;;;;;;15.38;7.30;;;;;;;32.05;22.21;101326.73;1752348;81;21180;-67
2021/04/23 06:45:31;;;;;;;20.27;9.30;;;;;;;32.33;21.94;101327.06;1736222;82;21303;-67
2021/04/23 06:48:05;;;;;;;12.18;7.62;;;;;;;32.61;21.23;101318.72;1704485;83;21290;-67
2021/04/23 06:50:39;;;;;;;12.05;7.37;;;;;;;32.61;21.15;101325.50;1699160;83;21410;-68
2021/04/23 06:53:12;;;;;;;8.48;6.83;;;;;;;32.59;21.20;101316.27;1707687;84;21307;-68
2021/04/23 06:55:47;;;;;;;8.83;6.20;;;;;;;32.56;21.36;101325.44;1700906;83;21196;-66
2021/04/23 06:58:20;;;;;;;7.20;5.15;;;;;;;32.60;21.74;101315.19;1691325;83;21845;-67
2021/04/23 07:00:54;;;;;;;6.42;4.70;;;;;;;32.90;20.81;101320.63;1693171;84;21348;-68
2021/04/23 07:03:28;;;;;;;12.50;5.10;;;;;;;33.02;20.26;101322.13;1683422;84;21283;-67
2021/04/23 07:06:00;;;;;;;;;;;;;;;33.31;20.23;101323.99;1697001;84;21255;-68
2021/04/23 07:08:35;;;;;;;7.72;5.70;;;;;;;33.56;19.71;101322.00;1695869;84;20296;-68
2021/04/23 07:11:08;;;;;;;7.40;5.45;;;;;;;33.29;20.07;101319.90;1702130;84;21836;-68
2021/04/23 07:13:41;;;;;;;15.03;6.40;;;;;;;33.33;20.24;101321.00;1694734;84;21298;-69
2021/04/23 07:16:14;;;;;;;6.55;5.40;;;;;;;33.46;20.13;101308.35;1691050;84;21374;-67
2021/04/23 07:18:48;;;;;;;12.15;5.20;;;;;;;33.49;19.91;101312.70;1683835;84;21922;-68
2021/04/23 07:21:21;;;;;;;6.78;4.20;;;;;;;33.61;19.38;101316.07;1693205;84;21860;-68
2021/04/23 07:23:55;;;;;;;4.95;4.17;;;;;;;33.71;19.24;101309.34;1693994;84;21915;-66
2021/04/23 07:26:28;;;;;;;5.42;4.37;;;;;;;33.85;19.20;101310.50;1692373;83;21333;-68
2021/04/23 07:29:02;;;;;;;4.95;3.98;;;;;;;34.22;18.79;101307.70;1720670;82;21322;-67
2021/04/23 07:31:35;;;;;;;8.35;4.83;;;;;;;34.53;18.43;101301.30;1715972;83;21321;-70
2021/04/23 07:34:09;;;;;;;6.22;4.10;;;;;;;34.43;18.67;101294.44;1672282;84;21233;-70
2021/04/23 07:36:42;;;;;;;9.23;4.20;;;;;;;34.52;18.73;101296.89;1715847;83;21290;-70
2021/04/23 07:39:16;;;;;;;4.92;2.72;;;;;;;34.70;18.57;101287.98;1716014;83;21203;-68
2021/04/23 07:41:50;;;;;;;5.60;3.60;;;;;;;34.76;18.06;101289.06;1716643;83;21856;-69
2021/04/23 07:44:24;;;;;;;3.20;2.80;;;;;;;34.90;18.15;101295.59;1722795;83;21326;-67
2021/04/23 07:46:57;;;;;;;5.25;3.70;;;;;;;34.74;17.90;101284.98;1707870;83;21303;-67
2021/04/23 07:49:30;;;;;;;4.12;3.37;;;;;;;33.86;18.45;101276.83;1710493;83;21221;-66
2021/04/23 07:52:06;;;;;;;3.30;3.00;;;;;;;32.55;19.80;101282.59;1728878;83;21876;-65
2021/04/23 07:54:39;;;;;;;2.92;2.58;;;;;;;31.75;19.97;101277.54;1727405;83;21338;-64
2021/04/23 07:57:13;;;;;;;4.12;3.22;;;;;;;30.91;20.84;101285.43;1714904;83;21820;-68
2021/04/23 07:59:46;;;;;;;;;;;;;;;30.90;21.22;101287.34;1728759;82;21298;-63
2021/04/23 08:02:18;;;;;;;6.92;4.10;;;;;;;30.97;21.45;101285.82;1702197;83;20236;-66
2021/04/23 08:04:52;;;;;;;10.32;4.53;;;;;;;30.71;21.63;101275.61;1705232;83;21849;-62
2021/04/23 08:07:26;;;;;;;5.00;3.72;;;;;;;30.63;21.82;101274.11;1710402;83;21349;-64
2021/04/23 08:10:00;;;;;;;4.20;3.58;;;;;;;29.88;22.30;101268.02;1706120;83;21376;-65
2021/04/23 08:12:33;;;;;;;4.45;3.42;;;;;;;29.05;22.59;101261.51;1723894;83;21243;-63
2021/04/23 08:15:09;;;;;;;8.15;3.60;;;;;;;28.82;23.47;101257.95;1696101;83;21176;-64
2021/04/23 08:17:44;;;;;;;5.45;3.40;;;;;;;29.04;23.12;101261.75;1721872;83;21195;-64
2021/04/23 08:20:18;;;;;;;4.78;3.80;;;;;;;28.89;23.09;101264.06;1709888;83;21690;-64
2021/04/23 08:22:52;;;;;;;5.33;4.15;;;;;;;28.41;23.36;101261.44;1709480;83;21153;-66
2021/04/23 08:25:26;;;;;;;6.15;5.50;;;;;;;28.02;23.98;101257.39;1710003;83;21916;-66
2021/04/23 08:28:00;;;;;;;6.65;4.58;;;;;;;27.51;24.93;101258.27;1721913;83;21159;-67
2021/04/23 08:30:35;;;;;;;5.80;4.17;;;;;;;27.21;25.17;101254.06;1728205;83;21852;-64
2021/04/23 08:33:08;;;;;;;8.38;4.28;;;;;;;26.98;25.62;101254.69;1709409;83;21294;-67
2021/04/23 08:35:43;;;;;;;7.03;3.92;;;;;;;26.62;26.28;101255.33;1707575;83;21370;-63
2021/04/23 08:38:15;;;;;;;9.68;4.33;;;;;;;26.43;26.37;101252.77;1687205;83;21215;-63
2021/04/23 08:40:49;;;;;;;5.90;4.47;;;;;;;26.52;26.94;101248.77;1728258;82;21225;-62
2021/04/23 08:43:24;;;;;;;7.03;5.28;;;;;;;27.03;26.27;101247.31;1737702;82;21325;-64
2021/04/23 08:45:57;;;;;;;7.30;5.40;;;;;;;27.02;26.40;101244.30;1732824;82;21370;-61
2021/04/23 08:48:32;;;;;;;5.90;4.40;;;;;;;26.74;26.73;101245.54;1734849;82;21314;-64
2021/04/23 08:51:07;;;;;;;4.85;4.28;;;;;;;26.47;26.35;101240.55;1699729;82;21259;-62
2021/04/23 08:53:40;;;;;;;8.93;4.03;;;;;;;26.75;27.19;101230.25;1727945;82;21791;-59
2021/04/23 08:56:15;;;;;;;3.60;2.98;;;;;;;27.42;26.65;101223.30;1728105;82;21310;-60
2021/04/23 08:58:47;;;;;;;;;;;;;;;28.08;25.19;101220.67;1735030;82;21337;-62
2021/04/23 09:01:20;;;;;;;4.20;3.12;;;;;;;28.15;24.55;101216.84;1732230;82;20306;-60
2021/04/23 09:03:53;;;;;;;5.67;3.27;;;;;;;27.77;24.44;101215.76;1734451;82;21397;-63
2021/04/23 09:06:30;;;;;;;4.03;2.85;;;;;;;27.80;24.73;101214.48;1734326;81;21231;-62
2021/04/23 09:09:13;;;;;;;3.72;2.75;;;;;;;27.97;24.00;101216.31;1738777;82;21379;-66
2021/04/23 09:11:46;;;;;;;7.72;3.10;;;;;;;28.23;23.58;101215.71;1735076;81;21343;-66
2021/04/23 09:14:21;;;;;;;5.08;2.72;;;;;;;28.43;23.18;101208.16;1739901;82;21179;-61
2021/04/23 09:17:05;;;;;;;3.25;2.62;;;;;;;27.77;23.53;101197.44;1739061;81;21226;-63
2021/04/23 09:19:37;;;;;;;9.50;3.65;;;;;;;26.95;24.05;101204.06;1733709;81;21168;-62
2021/04/23 09:22:19;;;;;;;11.48;3.30;;;;;;;25.92;25.13;101206.63;1739342;82;21805;-61
2021/04/23 09:25:15;;;;;;;5.50;3.87;;;;;;;25.09;26.42;101210.13;1730728;82;21302;-61
2021/04/23 09:27:49;;;;;;;4.08;3.37;;;;;;;24.41;29.05;101216.64;1731924;82;21710;-61
2021/04/23 09:30:28;;;;;;;5.50;3.83;;;;;;;23.88;31.37;101208.12;1738010;81;21337;-66
2021/04/23 09:33:01;;;;;;;4.62;4.12;;;;;;;23.54;32.08;101205.48;1731561;82;21346;-66
2021/04/23 09:35:36;;;;;;;3.70;3.40;;;;;;;23.23;32.13;101212.55;1659692;84;21342;-65
2021/04/23 09:38:12;;;;;;;7.75;4.75;;;;;;;22.93;32.66;101209.77;1695247;83;21414;-65
2021/04/23 09:40:45;;;;;;;9.68;4.70;;;;;;;22.65;35.88;101225.73;1710772;83;21243;-65
2021/04/23 09:43:18;;;;;;;7.50;5.15;;;;;;;22.32;39.23;101221.87;1714837;83;21365;-63
2021/04/23 09:45:54;;;;;;;7.20;5.40;;;;;;;21.91;40.58;101214.93;1688143;83;21801;-65
2021/04/23 09:48:27;;;;;;;11.08;6.22;;;;;;;21.45;40.12;101209.78;1713584;83;21303;-65
2021/04/23 09:51:06;;;;;;;6.40;5.65;;;;;;;21.03;41.39;101212.19;1715452;83;21361;-62
2021/04/23 09:53:43;;;;;;;8.40;5.97;;;;;;;20.70;42.84;101212.98;1671837;85;21341;-62
2021/04/23 09:56:16;;;;;;;8.80;6.40;;;;;;;20.39;44.28;101202.90;1698533;84;21326;-63
2021/04/23 09:58:49;;;;;;;8.85;6.50;;;;;;;20.12;46.17;101200.20;1688353;84;21338;-62
2021/04/23 10:01:22;;;;;;;7.90;5.40;;;;;;;19.93;47.24;101207.77;1710324;83;21200;-62
2021/04/23 10:03:55;;;;;;;8.63;6.33;;;;;;;19.78;46.82;101198.37;1700727;83;21349;-62
2021/04/23 10:06:32;;;;;;;14.47;10.03;;;;;;;19.62;44.32;101190.97;1708118;83;21217;-66
2021/04/23 10:09:10;;;;;;;13.93;5.78;;;;;;;19.63;46.35;101178.83;1693654;84;21842;-63
2021/04/23 10:11:44;;;;;;;8.85;3.95;;;;;;;19.83;46.34;101182.73;1691972;84;21846;-63
2021/04/23 10:14:17;;;;;;;;;;;;;;;20.04;45.15;101177.64;1720210;82;21275;-63
2021/04/23 10:16:58;;;;;;;3.95;3.50;;;;;;;20.21;44.23;101177.53;1718010;83;20241;-66
2021/04/23 10:19:24;;;;;;;4.17;3.08;;;;;;;20.34;42.45;101170.69;1713330;83;21446;-64
2021/04/23 10:21:57;;;;;;;5.08;3.47;;;;;;;20.45;41.94;101158.29;1718083;82;21200;-65
2021/04/23 10:24:30;;;;;;;5.08;3.72;;;;;;;20.58;41.61;101160.36;1706735;83;21215;-62
2021/04/23 10:27:03;;;;;;;4.67;3.90;;;;;;;20.74;39.85;101159.72;1706721;83;21218;-65
2021/04/23 10:29:37;;;;;;;6.05;4.72;;;;;;;20.75;40.21;101156.03;1710748;83;21357;-61
2021/04/23 10:32:10;;;;;;;5.72;4.67;;;;;;;20.67;40.57;101152.13;1707984;83;21239;-62
2021/04/23 10:34:44;;;;;;;10.20;5.12;;;;;;;20.53;40.35;101152.08;1710165;83;21341;-63
2021/04/23 10:37:17;;;;;;;6.25;4.75;;;;;;;20.45;41.14;101152.14;1705944;83;21782;-61
2021/04/23 10:39:50;;;;;;;4.97;4.17;;;;;;;20.43;40.82;101142.18;1719664;83;21247;-64
2021/04/23 10:43:12;;;;;;;5.62;3.87;;;;;;;20.47;39.21;101137.66;1707043;83;21317;-61
2021/04/23 10:46:09;;;;;;;7.30;4.20;;;;;;;20.50;38.55;101131.16;1656363;86;21187;-59
2021/04/23 10:48:45;;;;;;;6.60;4.00;;;;;;;20.45;37.68;101121.05;1659549;86;21343;-60
2021/04/23 10:51:28;;;;;;;4.90;4.10;;;;;;;20.45;36.78;101121.05;1659933;86;21261;-61
2021/04/23 10:54:16;;;;;;;4.70;3.42;;;;;;;20.56;38.28;101123.80;1622921;87;21850;-67
2021/04/23 10:56:55;;;;;;;4.58;3.25;;;;;;;20.74;38.63;101118.47;1641160;86;21356;-64
2021/04/23 10:59:35;;;;;;;3.10;2.80;;;;;;;20.88;37.98;101115.99;1669613;84;21334;-63
2021/04/23 11:02:18;;;;;;;4.10;2.60;;;;;;;21.00;36.21;101110.05;1636935;86;21277;-66
2021/04/23 11:04:59;;;;;;;2.65;2.42;;;;;;;21.08;36.09;101107.34;1672517;84;21312;-62
2021/04/23 11:07:33;;;;;;;4.15;2.80;;;;;;;21.16;34.82;101108.56;1668038;84;21859;-65
2021/04/23 11:10:07;;;;;;;3.33;2.70;;;;;;;21.21;34.75;101102.67;1665111;84;21324;-66
2021/04/23 11:12:40;;;;;;;4.10;2.80;;;;;;;21.25;34.70;101111.47;1665365;84;21894;-64
2021/04/23 11:15:17;;;;;;;3.83;2.80;;;;;;;21.22;33.60;101102.52;1681139;84;22553;-62
2021/04/23 11:17:50;;;;;;;4.45;2.83;;;;;;;21.12;33.19;101105.95;1681129;83;21322;-63
2021/04/23 11:20:32;;;;;;;3.27;2.98;;;;;;;21.02;33.18;101089.88;1686870;83;21341;-63
2021/04/23 11:23:05;;;;;;;3.35;3.05;;;;;;;20.97;34.00;101080.32;1661805;85;21334;-63
2021/04/23 11:25:43;;;;;;;4.45;3.40;;;;;;;20.95;34.87;101078.31;1666965;85;21280;-67
2021/04/23 11:28:16;;;;;;;5.95;3.27;;;;;;;21.03;35.44;101085.73;1656477;85;22034;-63
2021/04/23 11:31:08;;;;;;;5.40;4.75;;;;;;;21.16;35.22;101083.27;1665111;85;21228;-63
2021/04/23 11:33:58;;;;;;;5.72;3.25;;;;;;;21.29;35.14;101074.63;1662962;85;21368;-63
2021/04/23 11:36:42;;;;;;;6.20;3.10;;;;;;;21.33;34.11;101067.41;1658512;85;21367;-61
2021/04/23 11:39:14;;;;;;;5.97;4.78;;;;;;;21.28;34.28;101063.67;1656760;85;21362;-60
2021/04/23 11:42:15;;;;;;;4.42;3.22;;;;;;;21.12;33.66;101062.52;1661176;85;21704;-61
2021/04/23 11:44:57;;;;;;;4.37;3.30;;;;;;;20.93;33.32;101054.55;1666039;85;21193;-60
2021/04/23 11:47:53;;;;;;;5.30;3.50;;;;;;;20.78;34.20;101050.56;1664427;85;21208;-61
2021/04/23 11:50:35;;;;;;;4.25;3.50;;;;;;;20.74;33.75;101037.80;1657429;84;21335;-60
2021/04/23 11:53:10;;;;;;;14.70;5.05;;;;;;;20.73;32.75;101032.98;1658986;84;21322;-63
2021/04/23 11:55:50;;;;;;;4.33;3.35;;;;;;;20.71;33.82;101027.02;1665791;85;21234;-64
2021/04/23 11:58:25;;;;;;;5.58;4.05;;;;;;;20.70;33.86;101024.05;1691133;83;21474;-64